createdAt,value
2022-11-04T00:06:29.198Z,952.99
2022-11-04T00:07:29.098Z,953.00
2022-11-04T03:36:51.930Z,953.56
2022-11-04T03:37:51.923Z,953.58
2022-11-04T08:43:42.726Z,954.40
2022-11-04T08:44:42.654Z,954.38
2022-11-04T08:45:42.566Z,954.36
2022-11-04T08:46:42.507Z,954.38
2022-11-04T08:47:42.435Z,954.35
2022-11-04T08:48:42.376Z,954.36
2022-11-04T08:49:42.303Z,954.38
2022-11-04T08:50:42.237Z,954.36
2022-11-04T08:51:42.168Z,954.35
2022-11-04T08:52:42.106Z,954.35
2022-11-04T08:53:42.041Z,954.32
2022-11-04T08:54:41.983Z,954.30
2022-11-04T08:55:41.912Z,954.22
2022-11-04T08:56:41.853Z,954.22
2022-11-04T08:57:41.783Z,954.15
2022-11-04T08:58:41.721Z,954.12
2022-11-04T08:59:41.825Z,954.10
2022-11-04T09:00:41.602Z,954.09
2022-11-04T09:01:41.550Z,954.12
2022-11-04T09:02:41.452Z,954.12
2022-11-04T09:03:41.432Z,954.12
2022-11-04T09:04:41.320Z,954.11
2022-11-04T09:05:41.260Z,954.12
2022-11-04T09:06:41.196Z,954.10
2022-11-04T09:07:41.127Z,954.06
2022-11-04T09:08:41.054Z,954.10
2022-11-04T09:09:40.989Z,954.01
2022-11-04T09:10:40.925Z,953.99
2022-11-04T09:11:40.859Z,954.02
2022-11-04T09:12:40.801Z,954.03
2022-11-04T09:13:40.794Z,954.09
2022-11-04T09:14:40.667Z,954.07
2022-11-04T09:15:40.672Z,954.05
2022-11-04T09:16:40.530Z,954.06
2022-11-04T09:17:40.464Z,954.06
2022-11-04T09:18:40.411Z,954.05
2022-11-04T09:19:40.336Z,954.02
2022-11-04T09:20:40.269Z,954.00
2022-11-04T09:21:40.205Z,953.97
2022-11-04T09:22:44.686Z,953.97
2022-11-04T09:23:40.075Z,953.94
2022-11-04T09:24:40.025Z,953.99
2022-11-04T09:25:39.963Z,953.97
2022-11-04T09:26:39.879Z,953.96
2022-11-04T09:27:39.812Z,953.97
2022-11-04T09:28:39.747Z,953.98
2022-11-04T09:29:39.694Z,953.96
2022-11-04T09:30:39.617Z,953.92
2022-11-04T09:31:39.681Z,953.90
2022-11-04T09:32:39.482Z,953.89
2022-11-04T09:33:39.418Z,953.91
2022-11-04T09:34:39.354Z,953.90
2022-11-04T09:35:39.290Z,953.94
2022-11-04T09:36:39.226Z,953.95
2022-11-04T09:37:39.165Z,953.97
2022-11-04T09:38:39.100Z,953.99
2022-11-04T09:39:39.025Z,953.97
2022-11-04T09:40:38.958Z,953.97
2022-11-04T09:41:38.896Z,954.02
2022-11-04T09:42:38.858Z,954.01
2022-11-04T09:43:38.765Z,954.02
2022-11-04T09:44:59.777Z,954.02
2022-11-04T09:45:38.632Z,954.02
2022-11-04T09:46:38.622Z,954.06
2022-11-04T09:47:38.579Z,954.04
2022-11-04T09:48:38.436Z,954.12
2022-11-04T09:49:38.383Z,954.11
2022-11-04T09:50:38.308Z,954.18
2022-11-04T09:51:55.359Z,954.21
2022-11-04T09:52:38.173Z,954.21
2022-11-04T09:53:38.112Z,954.17
2022-11-04T09:54:40.795Z,954.19
2022-11-04T09:55:37.975Z,954.21
2022-11-04T09:56:37.912Z,954.22
2022-11-04T09:57:37.906Z,954.22
2022-11-04T09:58:37.782Z,954.23
2022-11-04T09:59:37.720Z,954.20
2022-11-04T10:00:37.751Z,954.23
2022-11-04T10:01:37.705Z,954.18
2022-11-04T10:02:37.598Z,954.24
2022-11-04T10:03:37.563Z,954.24
2022-11-04T10:04:37.399Z,954.23
2022-11-04T10:05:37.328Z,954.24
2022-11-04T10:06:37.262Z,954.28
2022-11-04T10:07:37.209Z,954.27
2022-11-04T10:08:38.174Z,954.24
2022-11-04T10:09:37.072Z,954.23
2022-11-04T10:10:37.016Z,954.22
2022-11-04T10:11:36.936Z,954.20
2022-11-04T10:12:36.870Z,954.21
2022-11-04T10:13:36.804Z,954.24
2022-11-04T10:14:36.744Z,954.17
2022-11-04T10:15:36.670Z,954.16
2022-11-04T10:16:36.610Z,954.15
2022-11-04T10:17:36.544Z,954.17
2022-11-04T10:18:36.480Z,954.17
2022-11-04T10:19:36.488Z,954.16
2022-11-04T10:20:41.054Z,954.12
2022-11-04T10:21:36.283Z,954.12
2022-11-04T10:22:36.220Z,954.08
2022-11-04T10:23:36.155Z,954.06
2022-11-04T10:24:36.090Z,954.01
2022-11-04T10:25:36.030Z,953.96
2022-11-04T10:26:35.954Z,953.96
2022-11-04T10:27:35.896Z,953.90
2022-11-04T10:28:35.828Z,953.88
2022-11-04T10:29:35.757Z,953.86
2022-11-04T10:30:35.699Z,953.78
2022-11-04T10:31:35.635Z,953.76
2022-11-04T10:32:35.564Z,953.73
2022-11-04T10:33:35.499Z,953.73
2022-11-04T10:34:35.440Z,953.69
2022-11-04T10:35:35.445Z,953.68
2022-11-04T10:36:35.311Z,953.73
2022-11-04T10:37:35.242Z,953.69
2022-11-04T10:38:35.175Z,953.70
2022-11-04T10:39:35.119Z,953.69
2022-11-04T10:40:35.043Z,953.67
2022-11-04T10:41:34.980Z,953.68
2022-11-04T10:42:34.913Z,953.63
2022-11-04T10:43:34.849Z,953.60
2022-11-04T10:44:34.787Z,953.60
2022-11-04T10:45:34.726Z,953.58
2022-11-04T10:46:38.375Z,953.56
2022-11-04T10:47:34.593Z,953.58
2022-11-04T10:48:34.523Z,953.58
2022-11-04T10:49:34.458Z,953.57
2022-11-04T10:50:34.418Z,953.58
2022-11-04T10:51:34.521Z,953.53
2022-11-04T10:52:34.262Z,953.50
2022-11-04T10:53:34.200Z,953.49
2022-11-04T10:54:34.137Z,953.52
2022-11-04T10:55:34.071Z,953.46
2022-11-04T10:56:34.087Z,953.51
2022-11-04T10:57:33.934Z,953.43
2022-11-04T10:58:33.871Z,953.41
2022-11-04T10:59:33.809Z,953.39
2022-11-04T11:00:33.764Z,953.40
2022-11-04T11:01:33.892Z,953.38
2022-11-04T11:02:33.609Z,953.39
2022-11-04T11:03:33.548Z,953.38
2022-11-04T11:04:33.482Z,953.44
2022-11-04T11:05:33.418Z,953.43
2022-11-04T11:06:33.363Z,953.46
2022-11-04T11:07:33.289Z,953.46
2022-11-04T11:08:33.218Z,953.49
2022-11-04T11:09:33.176Z,953.50
2022-11-04T11:10:33.089Z,953.50
2022-11-04T11:11:33.027Z,953.53
2022-11-04T11:13:32.892Z,953.52
2022-11-04T11:14:32.833Z,953.51
2022-11-04T11:15:32.808Z,953.49
2022-11-04T11:16:32.696Z,953.46
2022-11-04T11:17:32.635Z,953.44
2022-11-04T11:18:32.570Z,953.46
2022-11-04T11:19:32.510Z,953.46
2022-11-04T11:20:32.442Z,953.49
2022-11-04T11:21:32.372Z,953.50
2022-11-04T11:22:32.309Z,953.50
2022-11-04T11:23:32.240Z,953.54
2022-11-04T11:24:32.193Z,953.55
2022-11-04T11:25:32.117Z,953.57
2022-11-04T11:27:52.958Z,953.53
2022-11-04T11:28:58.367Z,953.55
2022-11-04T11:30:46.124Z,953.56
2022-11-04T11:31:46.049Z,953.58
2022-11-04T11:33:51.423Z,953.57
2022-11-04T11:34:51.339Z,953.54
2022-11-04T11:35:51.273Z,953.51
2022-11-04T11:36:51.207Z,953.52
2022-11-04T11:37:51.144Z,953.53
2022-11-04T11:38:51.080Z,953.54
2022-11-04T11:39:51.012Z,953.54
2022-11-04T21:29:25.569Z,957.78
2022-11-04T21:30:29.033Z,957.78
